createdAt,value
2023-02-03T00:03:56.380Z,1031.25
2023-02-03T00:09:03.566Z,1031.23
2023-02-03T00:14:10.774Z,1031.06
2023-02-03T00:19:17.987Z,1031.01
2023-02-03T00:24:25.123Z,1031.01
2023-02-03T00:29:32.332Z,1030.90
2023-02-03T00:34:39.497Z,1030.92
2023-02-03T00:39:46.688Z,1030.96
2023-02-03T00:44:53.876Z,1031.06
2023-02-03T00:50:01.112Z,1031.16
2023-02-03T00:55:08.250Z,1031.14
2023-02-03T01:00:15.454Z,1031.03
2023-02-03T01:05:22.593Z,1030.93
2023-02-03T01:10:29.777Z,1031.01
2023-02-03T01:15:36.987Z,1031.12
2023-02-03T01:20:44.154Z,1031.04
2023-02-03T01:25:51.336Z,1030.99
2023-02-03T01:30:58.769Z,1030.88
2023-02-03T01:36:05.712Z,1030.88
2023-02-03T01:41:12.887Z,1030.83
2023-02-03T01:46:20.196Z,1030.97
2023-02-03T01:51:27.275Z,1031.14
2023-02-03T01:56:34.446Z,1031.10
2023-02-03T02:01:41.704Z,1031.07
2023-02-03T02:06:48.805Z,1031.15
2023-02-03T02:11:55.963Z,1031.19
2023-02-03T02:17:03.311Z,1031.22
2023-02-03T02:22:10.504Z,1031.30
2023-02-03T02:27:17.654Z,1031.33
2023-02-03T02:32:24.871Z,1031.29
2023-02-03T02:37:32.012Z,1031.38
2023-02-03T02:42:39.212Z,1031.27
2023-02-03T02:47:46.426Z,1030.98
2023-02-03T02:52:54.236Z,1030.97
2023-02-03T02:58:01.364Z,1030.93
2023-02-03T03:03:08.629Z,1030.96
2023-02-03T03:08:15.778Z,1030.86
2023-02-03T03:13:22.953Z,1030.90
2023-02-03T03:18:30.142Z,1030.82
2023-02-03T03:23:37.297Z,1030.85
2023-02-03T03:28:44.468Z,1030.92
2023-02-03T03:33:51.738Z,1030.91
2023-02-03T03:38:58.936Z,1030.66
2023-02-03T03:44:06.120Z,1030.53
2023-02-03T03:49:13.379Z,1030.45
2023-02-03T03:54:20.530Z,1030.77
2023-02-03T03:59:27.697Z,1030.89
2023-02-03T04:04:34.902Z,1030.79
2023-02-03T04:09:42.048Z,1030.40
2023-02-03T04:14:49.235Z,1030.23
2023-02-03T04:19:56.451Z,1030.29
2023-02-03T04:25:03.619Z,1030.24
2023-02-03T04:30:10.783Z,1030.26
2023-02-03T04:35:17.992Z,1030.06
2023-02-03T04:40:25.405Z,1030.03
2023-02-03T04:45:32.358Z,1030.23
2023-02-03T04:50:39.562Z,1030.31
2023-02-03T04:55:46.731Z,1030.45
2023-02-03T05:00:54.011Z,1030.48
2023-02-03T05:06:01.217Z,1030.69
2023-02-03T05:11:08.390Z,1030.84
2023-02-03T05:16:15.638Z,1030.67
2023-02-03T05:21:22.762Z,1030.76
2023-02-03T05:26:29.897Z,1031.00
2023-02-03T05:31:37.081Z,1031.04
2023-02-03T05:36:44.326Z,1030.96
2023-02-03T05:41:51.469Z,1031.16
2023-02-03T05:46:58.760Z,1031.33
2023-02-03T05:52:05.974Z,1031.44
2023-02-03T05:57:13.120Z,1031.35
2023-02-03T06:02:20.306Z,1031.48
2023-02-03T06:07:27.506Z,1031.26
2023-02-03T06:12:34.611Z,1031.00
2023-02-03T06:17:41.896Z,1031.01
2023-02-03T06:22:49.096Z,1030.97
2023-02-03T06:27:56.262Z,1031.07
2023-02-03T06:33:03.418Z,1031.23
2023-02-03T06:38:10.619Z,1031.12
2023-02-03T06:43:17.786Z,1031.01
2023-02-03T06:48:24.910Z,1031.08
2023-02-03T06:53:32.074Z,1031.27
2023-02-03T06:58:39.247Z,1031.38
2023-02-03T07:03:46.454Z,1031.48
2023-02-03T07:08:53.673Z,1031.36
2023-02-03T07:14:00.845Z,1031.34
2023-02-03T07:19:07.973Z,1031.55
2023-02-03T07:24:15.153Z,1031.60
2023-02-03T07:29:22.352Z,1031.62
2023-02-03T07:34:29.575Z,1031.71
2023-02-03T07:39:36.803Z,1031.52
2023-02-03T07:44:43.892Z,1031.52
2023-02-03T07:49:51.083Z,1031.56
2023-02-03T07:54:58.322Z,1031.68
2023-02-03T08:00:05.574Z,1031.59
2023-02-03T08:05:12.870Z,1031.73
2023-02-03T08:10:19.943Z,1031.85
2023-02-03T08:15:27.125Z,1031.70
2023-02-03T08:20:34.295Z,1031.87
2023-02-03T08:25:41.509Z,1031.62
2023-02-03T08:30:48.708Z,1031.61
2023-02-03T08:35:55.992Z,1031.61
2023-02-03T08:41:03.176Z,1031.66
2023-02-03T08:46:10.585Z,1031.61
2023-02-03T08:51:17.925Z,1031.68
2023-02-03T08:56:25.292Z,1031.79
2023-02-03T09:01:32.563Z,1031.73
2023-02-03T09:06:39.783Z,1031.76
2023-02-03T09:11:47.025Z,1031.76
2023-02-03T09:16:54.264Z,1031.72
2023-02-03T09:22:01.383Z,1031.74
2023-02-03T09:27:08.586Z,1031.75
2023-02-03T09:32:16.006Z,1031.68
2023-02-03T09:37:23.114Z,1031.68
2023-02-03T09:42:30.315Z,1031.65
2023-02-03T09:47:37.475Z,1031.62
2023-02-03T09:52:44.665Z,1031.50
2023-02-03T09:57:51.888Z,1031.42
2023-02-03T10:02:59.054Z,1031.51
2023-02-03T10:08:06.209Z,1031.56
2023-02-03T10:13:13.452Z,1031.63
2023-02-03T10:18:20.690Z,1031.52
2023-02-03T10:23:27.903Z,1031.48
2023-02-03T10:28:35.195Z,1031.58
2023-02-03T10:33:42.324Z,1031.53
2023-02-03T10:38:49.543Z,1031.47
2023-02-03T10:43:57.678Z,1031.33
2023-02-03T10:49:04.007Z,1031.09
2023-02-03T10:54:11.191Z,1031.01
2023-02-03T10:59:18.485Z,1030.93
2023-02-03T11:04:25.619Z,1030.87
2023-02-03T11:09:33.863Z,1030.77
2023-02-03T11:14:41.368Z,1030.62
2023-02-03T11:19:48.612Z,1030.56
2023-02-03T11:24:55.783Z,1030.45
2023-02-03T11:30:03.087Z,1030.47
2023-02-03T11:35:10.292Z,1030.46
2023-02-03T11:40:17.588Z,1030.50
2023-02-03T11:45:24.726Z,1030.60
2023-02-03T11:50:31.880Z,1030.71
2023-02-03T11:55:39.059Z,1030.68
2023-02-03T12:00:46.340Z,1030.54
2023-02-03T12:05:53.543Z,1030.43
2023-02-03T12:11:00.820Z,1030.45
2023-02-03T12:16:08.122Z,1030.49
2023-02-03T12:21:15.191Z,1030.39
2023-02-03T12:26:22.375Z,1030.45
2023-02-03T12:31:29.705Z,1030.52
2023-02-03T12:36:36.742Z,1030.16
2023-02-03T12:41:43.935Z,1029.94
2023-02-03T12:46:51.141Z,1029.86
2023-02-03T12:51:58.313Z,1029.72
2023-02-03T12:57:06.183Z,1029.60
2023-02-03T13:02:13.343Z,1029.50
2023-02-03T13:07:20.457Z,1029.34
2023-02-03T13:12:27.683Z,1029.35
2023-02-03T13:17:34.871Z,1029.38
2023-02-03T13:22:42.046Z,1029.39
2023-02-03T13:27:49.259Z,1029.31
2023-02-03T13:32:56.432Z,1029.29
2023-02-03T13:38:03.632Z,1029.11
2023-02-03T13:43:10.902Z,1028.97
2023-02-03T13:48:18.215Z,1029.13
2023-02-03T13:53:25.454Z,1029.24
2023-02-03T13:58:32.742Z,1029.02
2023-02-03T14:03:40.147Z,1029.07
2023-02-03T14:08:47.280Z,1029.17
2023-02-03T14:13:54.635Z,1029.12
2023-02-03T14:19:01.902Z,1029.24
2023-02-03T14:24:09.151Z,1029.32
2023-02-03T14:29:16.341Z,1029.46
2023-02-03T14:34:23.538Z,1029.46
2023-02-03T14:39:30.783Z,1029.42
2023-02-03T14:44:37.983Z,1029.51
2023-02-03T14:49:45.206Z,1029.57
2023-02-03T14:54:52.366Z,1029.61
2023-02-03T14:59:59.578Z,1029.53
2023-02-03T15:05:06.812Z,1029.44
2023-02-03T15:10:13.905Z,1029.45
2023-02-03T15:15:21.085Z,1029.56
2023-02-03T15:20:28.305Z,1029.51
2023-02-03T15:25:35.441Z,1029.58
2023-02-03T15:30:42.633Z,1029.45
2023-02-03T15:35:49.837Z,1029.45
2023-02-03T15:40:57.005Z,1029.49
2023-02-03T15:46:04.343Z,1029.48
2023-02-03T15:51:11.486Z,1029.49
2023-02-03T15:56:18.653Z,1029.68
2023-02-03T16:01:25.877Z,1029.72
2023-02-03T16:06:33.033Z,1029.69
2023-02-03T16:11:40.256Z,1029.67
2023-02-03T16:17:02.730Z,1029.78
2023-02-03T16:21:54.867Z,1029.79
2023-02-03T16:27:01.985Z,1029.88
2023-02-03T16:32:09.225Z,1029.88
2023-02-03T16:37:16.390Z,1029.90
2023-02-03T16:42:23.621Z,1029.87
2023-02-03T16:47:30.824Z,1029.69
2023-02-03T16:52:38.110Z,1029.65
2023-02-03T16:57:45.285Z,1029.49
2023-02-03T17:02:52.801Z,1029.52
2023-02-03T17:08:00.189Z,1029.67
2023-02-03T17:13:07.359Z,1029.81
2023-02-03T17:18:14.936Z,1029.80
2023-02-03T17:23:22.344Z,1029.72
2023-02-03T17:28:29.511Z,1029.55
2023-02-03T17:33:36.972Z,1029.59
2023-02-03T17:53:28.668Z,1029.41
2023-02-03T17:58:36.069Z,1029.53
2023-02-03T18:03:43.466Z,1029.54
2023-02-03T18:08:50.763Z,1029.47
2023-02-03T18:13:58.290Z,1029.30
2023-02-03T18:19:05.602Z,1029.53
2023-02-03T18:24:13.146Z,1029.52
2023-02-03T18:29:20.809Z,1029.47
2023-02-03T18:34:28.317Z,1029.56
2023-02-03T18:39:35.996Z,1029.67
2023-02-03T18:44:43.277Z,1029.82
2023-02-03T18:49:50.771Z,1029.90
2023-02-03T18:54:58.421Z,1029.93
2023-02-03T19:00:06.004Z,1030.00
2023-02-03T19:05:13.541Z,1030.07
2023-02-03T19:10:22.175Z,1030.10
2023-02-03T19:15:29.630Z,1030.11
2023-02-03T19:20:37.190Z,1030.21
2023-02-03T19:25:44.827Z,1030.20
2023-02-03T19:30:57.513Z,1030.22
2023-02-03T19:36:00.134Z,1030.23
2023-02-03T19:41:07.872Z,1030.24
2023-02-03T19:46:16.757Z,1030.19
2023-02-03T19:51:24.427Z,1030.17
2023-02-03T19:56:32.063Z,1030.15
2023-02-03T20:01:39.748Z,1030.18
2023-02-03T20:06:46.979Z,1030.27
2023-02-03T20:11:54.482Z,1030.38
2023-02-03T20:17:02.075Z,1030.31
2023-02-03T20:22:09.689Z,1030.26
2023-02-03T20:27:17.426Z,1030.31
2023-02-03T20:32:25.023Z,1030.47
2023-02-03T20:37:32.813Z,1030.28
2023-02-03T20:42:40.683Z,1030.33
2023-02-03T20:47:48.009Z,1030.33
2023-02-03T20:52:55.489Z,1030.33
2023-02-03T20:58:02.836Z,1030.28
2023-02-03T21:03:10.306Z,1030.20
2023-02-03T21:08:17.699Z,1030.27
2023-02-03T21:13:25.159Z,1030.39
2023-02-03T21:18:32.741Z,1030.46
2023-02-03T21:23:40.562Z,1030.46
2023-02-03T21:28:48.097Z,1030.49
2023-02-03T21:33:55.404Z,1030.57
2023-02-03T21:39:02.888Z,1030.48
2023-02-03T21:44:10.429Z,1030.43
2023-02-03T21:49:18.020Z,1030.48
2023-02-03T21:54:25.349Z,1030.54
2023-02-03T21:59:32.588Z,1030.65
2023-02-03T22:04:39.809Z,1030.81
2023-02-03T22:09:46.978Z,1030.83
2023-02-03T22:14:54.373Z,1030.75
2023-02-03T22:20:01.665Z,1030.79
2023-02-03T22:25:08.869Z,1030.89
2023-02-03T22:30:16.043Z,1030.84
2023-02-03T22:35:23.243Z,1030.80
2023-02-03T22:40:30.980Z,1030.76
2023-02-03T22:45:37.725Z,1031.04
2023-02-03T22:50:45.088Z,1030.87
2023-02-03T22:55:52.352Z,1030.67
2023-02-03T23:00:59.567Z,1030.69
2023-02-03T23:06:06.819Z,1030.74
2023-02-03T23:11:14.017Z,1030.83
2023-02-03T23:16:21.231Z,1030.83
2023-02-03T23:21:28.383Z,1030.75
2023-02-03T23:26:35.593Z,1030.86
2023-02-03T23:31:43.037Z,1030.79
2023-02-03T23:36:50.085Z,1030.72
2023-02-03T23:41:57.337Z,1030.76
2023-02-03T23:47:04.538Z,1030.77
2023-02-03T23:52:11.760Z,1030.84
2023-02-03T23:57:19.061Z,1030.79
